首页
METAR-TAF:

METAR-TAF

机场 :

圣约翰斯国际机场

聖約翰斯, 紐芬蘭-拉布拉多, 加拿大

纬度: 47-37N, 经度: 052-44W, 海拔: 134米

当前天气观测

该预报发布于24分钟前的06:25 UTC
风速17节,风向西转西南,有时为26节阵风
温度 15°C
湿度 94%
气压 1016 hPa
能見度: 24.1公里
阴天层高于400英尺

METAR: CYYT 180625Z 25017G26KT 15SM OVC004 15/14 A2999 RMK ST8 SLP157 DENSITY ALT 500FT

时间: 04:19 (06:49 UTC)

预报

该预报发布于1小时和11分钟前的05:38 UTC
预报有效从18日的 06点(UTC)到 19日的 06点(UTC)
风速12节,风向西转西南,有时为22节阵风
能見度: 3.2公里
阴天层高于200英尺
小毛毛雨, 轻雾
短暂存在
从 18日的 06点(UTC)到 18日的 12点(UTC)
能見度: 9.7公里
阴天层高于400英尺
轻雾
从 18日的 1200点(UTC)
风速15节,风向西南,有时为25节阵风
能見度: 10公里
阴天层高于1000英尺
短暂存在
从 18日的 12点(UTC)到 18日的 14点(UTC)
能見度: 8.0公里
阴天层高于600英尺
小毛毛雨, 轻雾
从 18日的 1400点(UTC)
风速15节,风向西南,有时为25节阵风
能見度: 10公里
多云层高于1500英尺
短暂存在
从 18日的 14点(UTC)到 18日的 24点(UTC)
散云层高于1500英尺
从 19日的 0000点(UTC)
风速15节,风向南转西南,有时为25节阵风
能見度: 10公里
阴天层高于800英尺
从 19日的 0200点(UTC)
风速15节,风向,有时为25节阵风
能見度: 6.4公里
阴天层高于400英尺
小毛毛雨, 轻雾
几率 30%
从 19日的 02点(UTC)到 19日的 06点(UTC)
能見度: 3.2公里
阴天层高于300英尺
小毛毛雨, 轻雾

TAF: CYYT 180538Z 1806/1906 25012G22KT 2SM -DZ BR OVC002 TEMPO 1806/1812 6SM BR OVC004 FM181200 23015G25KT P6SM OVC010 TEMPO 1812/1814 5SM -DZ BR OVC006 FM181400 23015G25KT P6SM BKN015 TEMPO 1814/1824 SCT015 FM190000 21015G25KT P6SM OVC008 FM190200 19015G25KT 4SM -DZ BR OVC004 PROB30 1902/1906 2SM -DZ BR OVC003 RMK NXT FCST BY 181200Z

超过4000个机场的气象观测和天气预报(METAR&TAF报告)。

可查询的气象台以黄色和红色小点在地图上表示。

将鼠标移到小点上方,可查看气象台名称。

然后点击查看天气观测和预报。

如需切换地图:点击带黑十字的绿色按钮放大地图;点击带横线的绿色按钮缩小地图;或者点击绿色箭头查看邻近地区的地图。


METAR-TAF: